Terminal Aerodrome Forecast
Issued by NWS

Home | Current Version | Previous Version | Text Only | Print | Product List | Glossary On
Versions: 1 2 3 4 5 6 7 8 9 10 11 12 13 14 15 16 17 18 19 20 21 22 23 24 25 26 27 28 29 30 31 32 33 34 35 36 37 38 39 40 41 42 43 44 45 46 47 48
000
FTUS44 KLIX 190215 AAA
TAFHDC
TAF AMD
KHDC 190215Z 1902/1924 14007KT P6SM SCT008 BKN012 BKN018
     FM190300 14006KT P6SM OVC006
     FM190500 15005KT 3SM BR VCSH OVC004
     FM191200 16004KT 1 1/2SM BR VCTS OVC008CB
     FM191600 18007KT 3SM -SHRA BR VCTS OVC025CB
      TEMPO 1917/1919 2SM +TSRA OVC015CB
     FM192300 19004KT P6SM -SHRA VCTS BKN020CB=

USA.gov is the U.S. government's official web portal to all federal, state and local government web resources and services.